Time;durP1;ratioP1;P1;durP2;ratioP2;P2;SDS_P1;SDS_P2;PMS_P1;PMS_P2;Temp;Humidity;BMP_temperature;BMP_pressure;BME280_temperature;BME280_humidity;BME280_pressure;Samples;Min_cycle;Max_cycle;Signal;HPM_P1;HPM_P2
2022/04/16 00:00:54;;;;;;;2.03;1.67;;;;;;;;;;5103493;28;20281;-91
2022/04/16 00:03:22;;;;;;;1.10;1.00;;;;;;;;;;5107417;28;20213;-91
2022/04/16 00:05:51;;;;;;;1.70;1.10;;;;;;;;;;5110744;28;20299;-92
2022/04/16 00:08:20;;;;;;;1.37;1.27;;;;;;;;;;5095125;28;20228;-91
2022/04/16 00:10:48;;;;;;;1.17;1.17;;;;;;;;;;5099544;28;20226;-91
2022/04/16 00:13:16;;;;;;;1.00;1.00;;;;;;;;;;5111298;28;20200;-92
2022/04/16 00:15:44;;;;;;;1.40;1.30;;;;;;;;;;5102511;28;20204;-92
2022/04/16 00:18:11;;;;;;;1.03;1.00;;;;;;;;;;5097006;28;20215;-92
2022/04/16 00:20:40;;;;;;;1.83;1.40;;;;;;;;;;5110121;28;20267;-90
2022/04/16 00:23:08;;;;;;;1.30;1.30;;;;;;;;;;5110913;28;20291;-92
2022/04/16 00:25:36;;;;;;;1.83;1.10;;;;;;;;;;5104739;28;20212;-91
2022/04/16 00:28:04;;;;;;;1.53;1.30;;;;;;;;;;5110112;28;20233;-91
2022/04/16 00:30:37;;;;;;;1.27;1.10;;;;;;;;;;5110845;28;20200;-92
2022/04/16 00:33:05;;;;;;;1.40;1.30;;;;;;;;;;5110131;28;20219;-91
2022/04/16 00:35:32;;;;;;;1.20;1.20;;;;;;;;;;5106748;28;20651;-91
2022/04/16 00:37:59;;;;;;;2.10;1.20;;;;;;;;;;5103772;28;20241;-91
2022/04/16 00:40:26;;;;;;;1.37;1.27;;;;;;;;;;5111298;28;20207;-92
2022/04/16 00:42:55;;;;;;;1.17;1.10;;;;;;;;;;5107062;28;20224;-92
2022/04/16 00:45:22;;;;;;;1.60;1.50;;;;;;;;;;5108196;28;20823;-91
2022/04/16 00:47:50;;;;;;;1.30;1.20;;;;;;;;;;5110322;28;20289;-93
2022/04/16 00:50:17;;;;;;;1.40;1.23;;;;;;;;;;5111483;28;20261;-91
2022/04/16 00:52:44;;;;;;;1.57;1.47;;;;;;;;;;5098112;28;20280;-90
2022/04/16 00:55:12;;;;;;;1.30;1.20;;;;;;;;;;5112472;28;20208;-92
2022/04/16 00:57:40;;;;;;;1.47;1.37;;;;;;;;;;5114635;28;20289;-91
2022/04/16 01:00:10;;;;;;;2.57;1.30;;;;;;;;;;5110526;28;20281;-91
2022/04/16 01:02:38;;;;;;;1.37;1.27;;;;;;;;;;5101071;28;20698;-90
2022/04/16 01:05:06;;;;;;;2.67;1.60;;;;;;;;;;5112918;28;20245;-91
2022/04/16 01:07:33;;;;;;;1.67;1.57;;;;;;;;;;5114766;28;20225;-91
2022/04/16 01:10:00;;;;;;;1.50;1.40;;;;;;;;;;5112823;28;20209;-89
2022/04/16 01:12:28;;;;;;;1.90;1.30;;;;;;;;;;5109042;28;20210;-89
2022/04/16 01:14:56;;;;;;;1.60;1.50;;;;;;;;;;5111549;28;20257;-90
2022/04/16 01:17:25;;;;;;;1.50;1.40;;;;;;;;;;5114488;28;20285;-90
2022/04/16 01:19:52;;;;;;;1.10;1.10;;;;;;;;;;5104450;28;20254;-92
2022/04/16 01:22:21;;;;;;;1.30;1.20;;;;;;;;;;5113411;28;20285;-92
2022/04/16 01:24:49;;;;;;;1.40;1.30;;;;;;;;;;5114052;28;20203;-91
2022/04/16 01:27:17;;;;;;;1.60;1.50;;;;;;;;;;5109372;28;20277;-92
2022/04/16 01:29:44;;;;;;;1.23;1.20;;;;;;;;;;5097716;28;20208;-90
2022/04/16 01:32:12;;;;;;;1.40;1.30;;;;;;;;;;5113537;28;20242;-92
2022/04/16 01:34:40;;;;;;;2.23;1.37;;;;;;;;;;5114058;28;20203;-91
2022/04/16 01:37:09;;;;;;;1.40;1.37;;;;;;;;;;5110624;28;20284;-91
2022/04/16 01:39:37;;;;;;;2.50;1.50;;;;;;;;;;5106077;28;20646;-91
2022/04/16 01:42:06;;;;;;;1.67;1.57;;;;;;;;;;5112936;28;20224;-91
2022/04/16 01:44:33;;;;;;;1.53;1.40;;;;;;;;;;5113719;28;20658;-91
2022/04/16 01:47:00;;;;;;;1.43;1.33;;;;;;;;;;5109617;28;20310;-92
2022/04/16 01:49:28;;;;;;;1.40;1.37;;;;;;;;;;5112548;28;20226;-92
2022/04/16 01:51:57;;;;;;;1.83;1.50;;;;;;;;;;5113445;28;20291;-91
2022/04/16 01:54:24;;;;;;;1.10;1.10;;;;;;;;;;5108088;28;20197;-92
2022/04/16 01:56:51;;;;;;;1.07;0.93;;;;;;;;;;5100958;28;20228;-92
2022/04/16 01:59:20;;;;;;;1.50;1.23;;;;;;;;;;5113811;28;20371;-93
2022/04/16 02:01:48;;;;;;;1.30;1.10;;;;;;;;;;5114123;28;20300;-91
2022/04/16 02:04:15;;;;;;;1.77;1.37;;;;;;;;;;5104989;28;20215;-91
2022/04/16 02:06:42;;;;;;;2.70;1.50;;;;;;;;;;5113354;28;20624;-91
2022/04/16 02:09:09;;;;;;;1.47;1.37;;;;;;;;;;5113676;28;20200;-91
2022/04/16 02:11:37;;;;;;;1.47;1.37;;;;;;;;;;5111608;28;20264;-91
2022/04/16 02:14:04;;;;;;;2.10;1.37;;;;;;;;;;5116329;28;20306;-92
2022/04/16 02:16:33;;;;;;;2.57;1.53;;;;;;;;;;5099264;28;20208;-91
2022/04/16 02:19:00;;;;;;;2.17;1.50;;;;;;;;;;5111330;28;20216;-91
2022/04/16 02:21:30;;;;;;;1.70;1.60;;;;;;;;;;5115696;28;20246;-91
2022/04/16 02:23:58;;;;;;;1.60;1.50;;;;;;;;;;5107317;28;20308;-92
2022/04/16 02:26:26;;;;;;;1.37;1.27;;;;;;;;;;5113444;28;20200;-92
2022/04/16 02:28:53;;;;;;;1.33;1.23;;;;;;;;;;5114082;28;20201;-91
2022/04/16 02:31:23;;;;;;;1.40;1.30;;;;;;;;;;5113980;28;20207;-91
2022/04/16 02:33:52;;;;;;;1.50;1.40;;;;;;;;;;5103229;28;20222;-92
2022/04/16 02:36:20;;;;;;;1.40;1.30;;;;;;;;;;5113815;28;20279;-92
2022/04/16 02:38:47;;;;;;;2.87;1.37;;;;;;;;;;5114225;28;20201;-91
2022/04/16 02:41:15;;;;;;;1.50;1.40;;;;;;;;;;5113727;28;20291;-91
2022/04/16 02:43:42;;;;;;;2.57;1.40;;;;;;;;;;5099754;28;20204;-93
2022/04/16 02:48:56;;;;;;;1.40;1.30;;;;;;;;;;5113722;28;20713;-92
2022/04/16 02:51:24;;;;;;;1.60;1.50;;;;;;;;;;5103689;28;20211;-93
2022/04/16 02:53:51;;;;;;;1.47;1.37;;;;;;;;;;5106631;28;20208;-92
2022/04/16 02:56:18;;;;;;;1.37;1.27;;;;;;;;;;5112821;28;20197;-92
2022/04/16 02:58:46;;;;;;;1.50;1.40;;;;;;;;;;5110039;28;20220;-91
2022/04/16 03:01:14;;;;;;;1.63;1.53;;;;;;;;;;5108457;28;20225;-92
2022/04/16 03:03:41;;;;;;;1.30;1.20;;;;;;;;;;5112316;28;20230;-91
2022/04/16 03:06:10;;;;;;;2.13;1.50;;;;;;;;;;5113198;28;20203;-92
2022/04/16 03:08:37;;;;;;;2.40;1.40;;;;;;;;;;5102581;28;20297;-91
2022/04/16 03:11:05;;;;;;;1.77;1.50;;;;;;;;;;5104164;28;20308;-92
2022/04/16 03:13:34;;;;;;;1.13;1.13;;;;;;;;;;5112177;28;20575;-91
2022/04/16 03:18:46;;;;;;;1.57;1.47;;;;;;;;;;5093376;28;20568;-91
2022/04/16 03:21:15;;;;;;;1.27;1.17;;;;;;;;;;5112251;28;20205;-90
2022/04/16 03:23:42;;;;;;;1.30;1.20;;;;;;;;;;5112730;28;20223;-91
2022/04/16 03:26:10;;;;;;;1.23;1.13;;;;;;;;;;5103121;28;20203;-92
2022/04/16 03:28:38;;;;;;;1.47;1.37;;;;;;;;;;5112473;28;20348;-92
2022/04/16 03:31:06;;;;;;;1.50;1.40;;;;;;;;;;5113001;28;20208;-92
2022/04/16 03:33:33;;;;;;;2.13;1.50;;;;;;;;;;5112471;28;20253;-92
2022/04/16 03:36:00;;;;;;;2.73;1.70;;;;;;;;;;5106036;28;20216;-92
2022/04/16 03:38:29;;;;;;;2.13;1.60;;;;;;;;;;5101084;28;20228;-91
2022/04/16 03:40:57;;;;;;;1.60;1.50;;;;;;;;;;5112909;28;20203;-92
2022/04/16 03:43:26;;;;;;;1.60;1.50;;;;;;;;;;5111888;28;20227;-91
2022/04/16 03:45:54;;;;;;;1.30;1.30;;;;;;;;;;5105593;28;20261;-89
2022/04/16 03:48:21;;;;;;;1.70;1.60;;;;;;;;;;5112103;28;20284;-92
2022/04/16 03:50:48;;;;;;;1.60;1.50;;;;;;;;;;5113117;28;20270;-91
2022/04/16 03:53:16;;;;;;;1.50;1.40;;;;;;;;;;5112783;28;20249;-92
2022/04/16 04:01:14;;;;;;;1.47;1.37;;;;;;;;;;5112827;28;20198;-91
2022/04/16 04:03:41;;;;;;;2.93;1.50;;;;;;;;;;5100744;28;20306;-91
2022/04/16 04:06:09;;;;;;;1.37;1.27;;;;;;;;;;5111319;28;20223;-91
2022/04/16 04:08:36;;;;;;;1.70;1.60;;;;;;;;;;5112513;28;20277;-92
2022/04/16 04:11:05;;;;;;;1.50;1.40;;;;;;;;;;5107229;28;20204;-91
2022/04/16 04:13:32;;;;;;;1.73;1.50;;;;;;;;;;5098880;28;20679;-92
2022/04/16 04:16:00;;;;;;;1.70;1.60;;;;;;;;;;5098866;28;20200;-92
2022/04/16 04:18:27;;;;;;;1.33;1.23;;;;;;;;;;5111619;28;20671;-91
2022/04/16 04:20:54;;;;;;;1.60;1.50;;;;;;;;;;5107804;28;20239;-91
2022/04/16 04:23:22;;;;;;;1.77;1.67;;;;;;;;;;5108954;28;20220;-92
2022/04/16 04:25:49;;;;;;;1.97;1.60;;;;;;;;;;5114212;28;20204;-90
2022/04/16 04:28:18;;;;;;;1.80;1.70;;;;;;;;;;5115479;28;20311;-93
2022/04/16 04:30:45;;;;;;;1.60;1.50;;;;;;;;;;5107571;28;20212;-91
2022/04/16 04:33:13;;;;;;;1.50;1.40;;;;;;;;;;5117893;28;20689;-92
2022/04/16 04:35:40;;;;;;;2.87;1.63;;;;;;;;;;5118796;28;20208;-93
2022/04/16 04:38:07;;;;;;;2.70;2.40;;;;;;;;;;5119339;28;20281;-90
2022/04/16 04:40:35;;;;;;;1.20;1.13;;;;;;;;;;5109583;28;20273;-91
2022/04/16 04:43:02;;;;;;;1.47;1.37;;;;;;;;;;5117296;28;20215;-90
2022/04/16 04:45:31;;;;;;;1.57;1.47;;;;;;;;;;5119245;28;20273;-92
2022/04/16 04:47:58;;;;;;;1.60;1.50;;;;;;;;;;5113729;28;20320;-91
2022/04/16 04:50:26;;;;;;;1.63;1.53;;;;;;;;;;5113258;28;20651;-90
2022/04/16 04:52:53;;;;;;;1.73;1.63;;;;;;;;;;5117888;28;20212;-92
2022/04/16 04:55:20;;;;;;;1.80;1.70;;;;;;;;;;5118095;28;20211;-92
2022/04/16 04:57:54;;;;;;;1.80;1.70;;;;;;;;;;5114858;28;20224;-91
2022/04/16 05:00:21;;;;;;;2.03;1.90;;;;;;;;;;5113578;28;20226;-92
2022/04/16 05:02:50;;;;;;;2.17;1.63;;;;;;;;;;5136338;28;20219;-90
2022/04/16 05:05:18;;;;;;;1.70;1.60;;;;;;;;;;5109341;28;20772;-91
2022/04/16 05:07:46;;;;;;;1.53;1.43;;;;;;;;;;5129807;27;20220;-91
2022/04/16 05:10:13;;;;;;;1.63;1.53;;;;;;;;;;5125141;27;20215;-91
2022/04/16 05:12:41;;;;;;;1.30;1.23;;;;;;;;;;5121835;27;20495;-91
2022/04/16 05:15:08;;;;;;;1.50;1.40;;;;;;;;;;5107151;28;20252;-91
2022/04/16 05:17:37;;;;;;;1.80;1.70;;;;;;;;;;5118896;27;20253;-92
2022/04/16 05:20:09;;;;;;;1.50;1.40;;;;;;;;;;5120103;28;20298;-91
2022/04/16 05:22:36;;;;;;;1.57;1.47;;;;;;;;;;5122402;28;20231;-90
2022/04/16 05:25:04;;;;;;;1.70;1.60;;;;;;;;;;5115311;28;20204;-92
2022/04/16 05:27:31;;;;;;;1.90;1.77;;;;;;;;;;5116823;28;20255;-91
2022/04/16 05:30:06;;;;;;;1.77;1.60;;;;;;;;;;5117746;28;20208;-92
2022/04/16 05:32:37;;;;;;;1.80;1.70;;;;;;;;;;5112451;28;20192;-90
2022/04/16 05:35:04;;;;;;;1.57;1.47;;;;;;;;;;5120037;28;20204;-92
2022/04/16 05:37:33;;;;;;;1.63;1.53;;;;;;;;;;5116215;28;20230;-90
2022/04/16 05:40:00;;;;;;;2.10;2.00;;;;;;;;;;5112230;28;20211;-92
2022/04/16 05:42:27;;;;;;;1.90;1.70;;;;;;;;;;5109276;28;20200;-92
2022/04/16 05:45:03;;;;;;;1.90;1.80;;;;;;;;;;5115371;28;20257;-91
2022/04/16 05:47:30;;;;;;;1.80;1.70;;;;;;;;;;5117409;28;20705;-92
2022/04/16 05:49:58;;;;;;;1.70;1.57;;;;;;;;;;5108971;28;20670;-92
2022/04/16 05:52:25;;;;;;;2.03;1.70;;;;;;;;;;5111593;28;20221;-92
2022/04/16 05:54:54;;;;;;;2.00;1.90;;;;;;;;;;5115388;28;20257;-92
2022/04/16 05:57:22;;;;;;;2.00;1.80;;;;;;;;;;5112668;28;20698;-89
2022/04/16 05:59:50;;;;;;;1.70;1.60;;;;;;;;;;5111654;28;20208;-91
2022/04/16 06:02:17;;;;;;;2.07;1.60;;;;;;;;;;5114708;28;20224;-91
2022/04/16 06:04:44;;;;;;;1.97;1.57;;;;;;;;;;5114647;28;20215;-92
2022/04/16 06:07:12;;;;;;;2.00;1.80;;;;;;;;;;5111994;28;20632;-91
2022/04/16 06:09:39;;;;;;;2.00;1.90;;;;;;;;;;5113508;28;20257;-92
2022/04/16 06:12:09;;;;;;;2.70;2.40;;;;;;;;;;5114008;28;20252;-91
2022/04/16 06:14:36;;;;;;;2.57;2.37;;;;;;;;;;5114670;28;20204;-91
2022/04/16 06:17:04;;;;;;;1.97;1.87;;;;;;;;;;5113490;28;20264;-92
2022/04/16 06:19:31;;;;;;;2.40;1.90;;;;;;;;;;5109544;28;20675;-91
2022/04/16 06:21:58;;;;;;;2.20;2.00;;;;;;;;;;5113985;28;20199;-91
2022/04/16 06:24:25;;;;;;;2.30;2.00;;;;;;;;;;5106579;28;20295;-92
2022/04/16 06:26:53;;;;;;;2.03;1.87;;;;;;;;;;5114100;28;20239;-90
2022/04/16 06:29:21;;;;;;;2.00;1.90;;;;;;;;;;5103632;28;20253;-92
2022/04/16 06:31:49;;;;;;;2.23;2.13;;;;;;;;;;5114551;28;20233;-92
2022/04/16 06:34:16;;;;;;;4.00;2.27;;;;;;;;;;5115178;28;20253;-92
2022/04/16 06:36:43;;;;;;;5.10;2.37;;;;;;;;;;5111794;28;20219;-91
2022/04/16 06:39:11;;;;;;;2.03;1.93;;;;;;;;;;5104584;28;20285;-92
2022/04/16 06:41:38;;;;;;;3.90;2.10;;;;;;;;;;5117918;27;20271;-92
2022/04/16 06:44:06;;;;;;;2.37;2.13;;;;;;;;;;5119037;27;20219;-92
2022/04/16 06:46:35;;;;;;;2.43;2.23;;;;;;;;;;5110434;28;20196;-92
2022/04/16 06:49:02;;;;;;;3.07;2.87;;;;;;;;;;5107148;28;20208;-90
2022/04/16 06:51:30;;;;;;;2.23;2.03;;;;;;;;;;5114744;28;20685;-92
2022/04/16 06:53:58;;;;;;;8.73;2.60;;;;;;;;;;5113755;28;20216;-91
2022/04/16 06:56:25;;;;;;;8.67;2.47;;;;;;;;;;5107929;28;20204;-91
2022/04/16 06:58:54;;;;;;;2.43;2.23;;;;;;;;;;5119906;27;20200;-91
2022/04/16 07:01:22;;;;;;;6.47;2.60;;;;;;;;;;5113942;28;20204;-90
2022/04/16 07:03:51;;;;;;;4.20;2.77;;;;;;;;;;5115879;28;20241;-91
2022/04/16 07:06:19;;;;;;;4.63;2.60;;;;;;;;;;5112524;28;20196;-91
2022/04/16 07:08:46;;;;;;;3.27;2.50;;;;;;;;;;5113480;28;20287;-91
2022/04/16 07:11:13;;;;;;;2.80;2.47;;;;;;;;;;5114536;28;20208;-91
2022/04/16 07:13:41;;;;;;;8.63;4.10;;;;;;;;;;5109657;28;20196;-92
2022/04/16 07:16:08;;;;;;;3.70;2.20;;;;;;;;;;5112774;28;20535;-91
2022/04/16 07:18:35;;;;;;;3.53;2.10;;;;;;;;;;5130241;27;20223;-91
2022/04/16 07:21:04;;;;;;;2.60;2.40;;;;;;;;;;5110466;27;20223;-91
2022/04/16 07:23:31;;;;;;;2.90;2.60;;;;;;;;;;5111936;28;20224;-91
2022/04/16 07:25:59;;;;;;;2.73;2.50;;;;;;;;;;5118559;27;20230;-92
2022/04/16 07:28:26;;;;;;;3.67;2.30;;;;;;;;;;5105928;28;20770;-91
2022/04/16 07:30:54;;;;;;;3.33;3.00;;;;;;;;;;5111180;27;20212;-90
2022/04/16 07:33:21;;;;;;;5.13;2.93;;;;;;;;;;5117911;27;20261;-91
2022/04/16 07:35:49;;;;;;;2.90;2.60;;;;;;;;;;5107353;28;20204;-91
2022/04/16 07:38:17;;;;;;;4.40;3.50;;;;;;;;;;5115045;28;20223;-92
2022/04/16 07:40:44;;;;;;;4.23;3.40;;;;;;;;;;5112286;28;20208;-89
2022/04/16 07:43:12;;;;;;;4.40;3.27;;;;;;;;;;5105393;28;20586;-92
2022/04/16 07:45:39;;;;;;;4.63;3.80;;;;;;;;;;5115963;28;20838;-91
2022/04/16 07:48:07;;;;;;;5.30;3.80;;;;;;;;;;5129188;27;20267;-91
2022/04/16 07:50:34;;;;;;;4.47;3.10;;;;;;;;;;5111074;27;20200;-91
2022/04/16 07:53:02;;;;;;;5.27;3.67;;;;;;;;;;5109142;28;20230;-92
2022/04/16 07:55:31;;;;;;;3.77;3.40;;;;;;;;;;5117083;28;20226;-91
2022/04/16 07:57:58;;;;;;;4.23;3.70;;;;;;;;;;5107745;28;20223;-92
2022/04/16 08:00:26;;;;;;;3.43;2.73;;;;;;;;;;5109449;28;20222;-92
2022/04/16 08:02:53;;;;;;;6.67;4.23;;;;;;;;;;5114075;28;20204;-91
2022/04/16 08:05:20;;;;;;;5.90;3.90;;;;;;;;;;5117881;28;20196;-92
2022/04/16 08:07:49;;;;;;;4.93;3.67;;;;;;;;;;5105950;28;20228;-92
2022/04/16 08:10:16;;;;;;;3.77;3.33;;;;;;;;;;5111991;28;20199;-92
2022/04/16 08:12:45;;;;;;;5.23;3.83;;;;;;;;;;5119077;28;20260;-92
2022/04/16 08:15:13;;;;;;;5.20;4.00;;;;;;;;;;5111310;28;20253;-91
2022/04/16 08:17:40;;;;;;;4.60;3.60;;;;;;;;;;5111234;28;20311;-91
2022/04/16 08:20:08;;;;;;;4.17;3.73;;;;;;;;;;5118567;28;20438;-91
2022/04/16 08:22:35;;;;;;;4.90;4.40;;;;;;;;;;5116471;28;20219;-92
2022/04/16 08:27:53;;;;;;;5.30;3.03;;;;;;;;;;5118132;28;20215;-92
2022/04/16 08:30:21;;;;;;;3.93;3.50;;;;;;;;;;5120075;28;20209;-92
2022/04/16 08:32:48;;;;;;;4.50;3.63;;;;;;;;;;5108556;28;20200;-92
2022/04/16 08:35:17;;;;;;;4.33;3.90;;;;;;;;;;5119073;28;20480;-91
2022/04/16 08:37:45;;;;;;;4.40;3.93;;;;;;;;;;5120590;28;20223;-90
2022/04/16 08:40:13;;;;;;;5.10;3.60;;;;;;;;;;5120539;28;20204;-92
2022/04/16 08:42:41;;;;;;;4.07;3.50;;;;;;;;;;5113358;28;20212;-91
2022/04/16 08:45:11;;;;;;;4.07;3.50;;;;;;;;;;5117426;28;20249;-91
2022/04/16 08:47:39;;;;;;;4.83;3.70;;;;;;;;;;5121039;28;20235;-91
2022/04/16 08:50:08;;;;;;;4.20;3.77;;;;;;;;;;5123037;28;20227;-91
2022/04/16 08:52:37;;;;;;;4.83;3.57;;;;;;;;;;5113782;28;20204;-92
2022/04/16 08:55:05;;;;;;;5.80;3.53;;;;;;;;;;5119055;28;20675;-92
2022/04/16 08:57:32;;;;;;;4.03;3.23;;;;;;;;;;5120372;28;20227;-92
2022/04/16 08:59:59;;;;;;;4.10;3.23;;;;;;;;;;5114271;28;20220;-91
2022/04/16 09:02:29;;;;;;;4.40;3.40;;;;;;;;;;5116105;28;20196;-89
2022/04/16 09:05:03;;;;;;;3.27;2.80;;;;;;;;;;5120182;28;20216;-91
2022/04/16 09:07:30;;;;;;;4.90;3.30;;;;;;;;;;5120876;28;20228;-91
2022/04/16 09:10:07;;;;;;;3.17;2.87;;;;;;;;;;5110019;28;20274;-92
2022/04/16 09:12:38;;;;;;;3.97;3.43;;;;;;;;;;5112628;28;20264;-91
2022/04/16 09:15:09;;;;;;;3.00;2.70;;;;;;;;;;5117616;28;20220;-91
2022/04/16 09:17:38;;;;;;;3.57;3.10;;;;;;;;;;5114466;28;20229;-91
2022/04/16 09:20:06;;;;;;;3.40;3.10;;;;;;;;;;5118568;28;20204;-91
2022/04/16 09:22:34;;;;;;;3.40;3.10;;;;;;;;;;5119368;28;20231;-91
2022/04/16 09:25:02;;;;;;;4.87;3.53;;;;;;;;;;5115398;28;20221;-91
2022/04/16 09:27:29;;;;;;;3.83;3.23;;;;;;;;;;5116632;28;20224;-92
2022/04/16 09:29:56;;;;;;;4.90;3.50;;;;;;;;;;5120440;28;20195;-92
2022/04/16 09:32:24;;;;;;;4.00;3.60;;;;;;;;;;5117389;28;20528;-91
2022/04/16 09:34:53;;;;;;;5.57;3.80;;;;;;;;;;5128579;28;20211;-92
2022/04/16 09:37:24;;;;;;;4.57;3.23;;;;;;;;;;5122661;28;20222;-91
2022/04/16 09:39:51;;;;;;;3.93;3.47;;;;;;;;;;5123018;28;20265;-92
2022/04/16 09:42:28;;;;;;;4.80;3.97;;;;;;;;;;5116890;28;20237;-90
2022/04/16 09:44:57;;;;;;;5.83;4.57;;;;;;;;;;5103431;28;20693;-91
2022/04/16 09:47:25;;;;;;;4.20;3.57;;;;;;;;;;5119758;28;20224;-91
2022/04/16 09:49:56;;;;;;;3.87;3.47;;;;;;;;;;5118744;28;20211;-91
2022/04/16 09:52:24;;;;;;;6.03;3.87;;;;;;;;;;5114325;28;20235;-91
2022/04/16 09:54:52;;;;;;;4.53;3.70;;;;;;;;;;5114649;28;20230;-92
2022/04/16 09:57:22;;;;;;;4.73;3.83;;;;;;;;;;5117913;28;20259;-92
2022/04/16 09:59:51;;;;;;;5.77;3.80;;;;;;;;;;5110472;28;20264;-91
2022/04/16 10:02:18;;;;;;;5.03;4.10;;;;;;;;;;5109984;28;20209;-91
2022/04/16 10:04:46;;;;;;;5.37;4.13;;;;;;;;;;5116656;28;20212;-91
2022/04/16 10:07:15;;;;;;;5.23;3.50;;;;;;;;;;5117559;28;20722;-91
2022/04/16 10:09:42;;;;;;;4.10;3.70;;;;;;;;;;5110753;28;20276;-91
2022/04/16 10:14:56;;;;;;;4.67;3.90;;;;;;;;;;5117168;28;20249;-91
2022/04/16 10:17:26;;;;;;;4.50;4.10;;;;;;;;;;5117028;28;20344;-92
2022/04/16 10:19:55;;;;;;;6.77;3.60;;;;;;;;;;5104521;28;20211;-91
2022/04/16 10:22:27;;;;;;;4.13;3.30;;;;;;;;;;5112505;28;20667;-91
2022/04/16 10:24:57;;;;;;;4.93;3.70;;;;;;;;;;5116426;28;20227;-91
2022/04/16 10:27:25;;;;;;;3.27;2.97;;;;;;;;;;5115734;28;20246;-91
2022/04/16 10:29:52;;;;;;;4.47;3.13;;;;;;;;;;5111209;28;20237;-91
2022/04/16 10:32:20;;;;;;;4.00;3.60;;;;;;;;;;5116988;28;20220;-91
2022/04/16 10:34:47;;;;;;;4.53;3.57;;;;;;;;;;5119100;28;20230;-92
2022/04/16 10:37:21;;;;;;;3.97;3.37;;;;;;;;;;5112132;28;20252;-91
2022/04/16 10:39:53;;;;;;;4.73;3.40;;;;;;;;;;5113161;28;20270;-91
2022/04/16 10:42:30;;;;;;;6.00;3.57;;;;;;;;;;5116575;28;20286;-91
2022/04/16 10:45:07;;;;;;;3.27;2.97;;;;;;;;;;5116098;28;20768;-91
2022/04/16 10:47:36;;;;;;;4.53;3.50;;;;;;;;;;5102270;28;20224;-92
2022/04/16 10:50:09;;;;;;;4.20;3.50;;;;;;;;;;5109738;28;20204;-90
2022/04/16 10:52:36;;;;;;;4.77;3.50;;;;;;;;;;5115520;28;20297;-91
2022/04/16 10:55:06;;;;;;;4.73;3.10;;;;;;;;;;5117530;28;20256;-91
2022/04/16 10:57:34;;;;;;;3.00;2.50;;;;;;;;;;5102268;28;20287;-91
2022/04/16 11:00:12;;;;;;;3.87;3.20;;;;;;;;;;5107902;28;20204;-91
2022/04/16 11:02:39;;;;;;;3.20;2.90;;;;;;;;;;5117095;28;20253;-92
2022/04/16 11:05:08;;;;;;;3.30;2.90;;;;;;;;;;5111717;28;20306;-92
2022/04/16 11:07:36;;;;;;;4.07;2.77;;;;;;;;;;5115427;28;20228;-91
2022/04/16 11:10:06;;;;;;;2.77;2.57;;;;;;;;;;5117482;28;20205;-92
2022/04/16 11:12:34;;;;;;;3.20;2.77;;;;;;;;;;5106914;28;20204;-90
2022/04/16 11:15:01;;;;;;;3.83;2.73;;;;;;;;;;5111426;28;20670;-89
2022/04/16 11:17:29;;;;;;;3.00;2.27;;;;;;;;;;5117415;28;20295;-91
2022/04/16 11:20:02;;;;;;;3.30;2.93;;;;;;;;;;5106283;28;20213;-92
2022/04/16 11:22:30;;;;;;;3.37;3.07;;;;;;;;;;5103052;28;20254;-91
2022/04/16 11:24:58;;;;;;;4.20;3.80;;;;;;;;;;5116398;28;20251;-91
2022/04/16 11:35:55;;;;;;;3.27;2.97;;;;;;;;;;5118241;28;20279;-91
2022/04/16 11:38:29;;;;;;;3.70;3.20;;;;;;;;;;5109112;28;20228;-91
2022/04/16 11:40:56;;;;;;;3.60;3.30;;;;;;;;;;5108803;28;20212;-92
2022/04/16 11:43:25;;;;;;;3.90;2.97;;;;;;;;;;5115346;28;20200;-92
2022/04/16 11:45:55;;;;;;;4.33;3.23;;;;;;;;;;5110875;28;20224;-91
2022/04/16 11:48:22;;;;;;;4.27;3.73;;;;;;;;;;5108284;28;20227;-91
2022/04/16 11:50:50;;;;;;;3.20;2.57;;;;;;;;;;5113372;28;20209;-91
2022/04/16 11:53:17;;;;;;;5.07;3.10;;;;;;;;;;5113786;28;20213;-91
2022/04/16 11:55:48;;;;;;;3.37;2.83;;;;;;;;;;5108088;28;20206;-90
2022/04/16 11:58:16;;;;;;;3.30;3.00;;;;;;;;;;5114058;28;20223;-91
2022/04/16 12:00:51;;;;;;;3.43;2.67;;;;;;;;;;5114499;28;20301;-92
2022/04/16 12:03:19;;;;;;;3.63;3.13;;;;;;;;;;5111957;28;20203;-91
2022/04/16 12:05:47;;;;;;;4.13;3.57;;;;;;;;;;5109597;28;20220;-91
2022/04/16 12:08:14;;;;;;;3.87;3.03;;;;;;;;;;5113570;28;20249;-91
2022/04/16 12:10:45;;;;;;;3.27;2.97;;;;;;;;;;5113705;28;20207;-91
2022/04/16 12:13:13;;;;;;;3.80;3.43;;;;;;;;;;5102923;28;20292;-91
2022/04/16 12:15:42;;;;;;;4.53;3.40;;;;;;;;;;5118978;28;20207;-92
2022/04/16 12:18:12;;;;;;;4.03;3.30;;;;;;;;;;5107560;28;20285;-92
2022/04/16 12:20:43;;;;;;;4.50;3.47;;;;;;;;;;5112430;28;20269;-92
2022/04/16 12:23:13;;;;;;;3.77;3.23;;;;;;;;;;5111707;28;20681;-91
2022/04/16 12:25:41;;;;;;;4.13;3.00;;;;;;;;;;5114274;28;20227;-91
2022/04/16 12:28:11;;;;;;;4.07;3.73;;;;;;;;;;5116748;28;20234;-93
2022/04/16 12:30:39;;;;;;;3.67;3.07;;;;;;;;;;5111861;28;20213;-91
2022/04/16 12:33:07;;;;;;;5.47;4.30;;;;;;;;;;5116480;28;20253;-92
2022/04/16 12:35:38;;;;;;;5.27;4.30;;;;;;;;;;5116764;28;20203;-91
2022/04/16 12:38:06;;;;;;;5.13;3.70;;;;;;;;;;5114408;28;20694;-92
2022/04/16 12:40:34;;;;;;;4.70;3.60;;;;;;;;;;5105882;28;20614;-91
2022/04/16 12:43:01;;;;;;;6.03;4.20;;;;;;;;;;5110225;28;20228;-92
2022/04/16 12:45:30;;;;;;;5.50;4.17;;;;;;;;;;5109997;28;20635;-92
2022/04/16 12:47:57;;;;;;;6.40;4.53;;;;;;;;;;5103600;28;20228;-92
2022/04/16 12:50:26;;;;;;;3.57;2.93;;;;;;;;;;5117817;28;20204;-93
2022/04/16 12:52:55;;;;;;;3.93;3.43;;;;;;;;;;5132258;27;20211;-92
2022/04/16 12:55:22;;;;;;;3.63;3.30;;;;;;;;;;5114628;27;20206;-93
2022/04/16 12:57:49;;;;;;;5.33;3.77;;;;;;;;;;5116411;28;20285;-92
2022/04/16 13:00:17;;;;;;;5.90;3.40;;;;;;;;;;5116189;28;20192;-93
2022/04/16 13:02:46;;;;;;;3.10;2.70;;;;;;;;;;5117639;28;20280;-93
2022/04/16 13:05:14;;;;;;;3.83;3.43;;;;;;;;;;5107231;28;20217;-93
2022/04/16 13:07:41;;;;;;;4.10;3.70;;;;;;;;;;5116515;28;20220;-94
2022/04/16 13:10:11;;;;;;;4.03;3.00;;;;;;;;;;5122970;27;20265;-92
2022/04/16 13:12:38;;;;;;;4.53;3.30;;;;;;;;;;5137032;27;20226;-92
2022/04/16 13:15:06;;;;;;;3.87;3.20;;;;;;;;;;5111957;28;20272;-93
2022/04/16 13:17:33;;;;;;;4.00;3.20;;;;;;;;;;5114686;28;20215;-93
2022/04/16 13:20:01;;;;;;;3.97;3.20;;;;;;;;;;5117967;27;20203;-93
2022/04/16 13:22:28;;;;;;;4.97;3.43;;;;;;;;;;5112805;28;20249;-92
2022/04/16 13:24:56;;;;;;;4.67;3.30;;;;;;;;;;5114298;28;20215;-93
2022/04/16 13:27:24;;;;;;;4.13;3.03;;;;;;;;;;5116536;28;20224;-92
2022/04/16 13:29:52;;;;;;;4.13;3.67;;;;;;;;;;5111906;28;20203;-93
2022/04/16 13:32:20;;;;;;;4.43;3.83;;;;;;;;;;5108325;28;20218;-93
2022/04/16 13:34:48;;;;;;;6.73;3.70;;;;;;;;;;5114537;28;20702;-92
2022/04/16 13:37:15;;;;;;;4.13;3.60;;;;;;;;;;5114591;28;20228;-92
2022/04/16 13:42:28;;;;;;;4.33;3.60;;;;;;;;;;5110727;28;20191;-90
2022/04/16 13:44:57;;;;;;;6.77;3.77;;;;;;;;;;5119929;27;20208;-92
2022/04/16 13:47:24;;;;;;;4.37;3.67;;;;;;;;;;5111065;28;20243;-93
2022/04/16 13:49:51;;;;;;;4.27;3.20;;;;;;;;;;5110531;28;20204;-93
2022/04/16 13:52:19;;;;;;;3.30;2.80;;;;;;;;;;5115804;28;20264;-93
2022/04/16 13:54:46;;;;;;;3.97;3.20;;;;;;;;;;5115263;28;20278;-93
2022/04/16 13:57:13;;;;;;;4.53;3.30;;;;;;;;;;5104955;28;20289;-92
2022/04/16 13:59:42;;;;;;;3.83;2.73;;;;;;;;;;5108366;27;20250;-92
2022/04/16 14:02:09;;;;;;;4.10;3.07;;;;;;;;;;5112768;28;20489;-91
2022/04/16 14:07:22;;;;;;;2.33;2.13;;;;;;;;;;5105758;28;20226;-92
2022/04/16 14:09:49;;;;;;;2.80;2.57;;;;;;;;;;5118989;27;20202;-93
2022/04/16 14:12:17;;;;;;;3.57;2.47;;;;;;;;;;5136712;27;20267;-93
2022/04/16 14:14:46;;;;;;;2.97;2.77;;;;;;;;;;5112167;28;20221;-92
2022/04/16 14:17:13;;;;;;;4.50;2.93;;;;;;;;;;5118072;27;20224;-93
2022/04/16 14:19:42;;;;;;;3.47;2.53;;;;;;;;;;5117639;27;20228;-92
2022/04/16 14:22:09;;;;;;;3.37;2.77;;;;;;;;;;5122898;27;20610;-92
2022/04/16 14:24:36;;;;;;;3.33;2.80;;;;;;;;;;5116857;28;20280;-92
2022/04/16 14:27:05;;;;;;;2.40;2.00;;;;;;;;;;5120394;28;20310;-94
2022/04/16 14:29:34;;;;;;;2.63;2.43;;;;;;;;;;5113406;28;20210;-93
2022/04/16 14:32:04;;;;;;;2.33;2.13;;;;;;;;;;5104808;28;20259;-93
2022/04/16 14:34:34;;;;;;;2.30;2.10;;;;;;;;;;5123477;27;20218;-92
2022/04/16 14:37:01;;;;;;;3.33;2.47;;;;;;;;;;5110777;28;20221;-93
2022/04/16 14:39:28;;;;;;;2.40;2.20;;;;;;;;;;5111087;28;20207;-91
2022/04/16 14:41:57;;;;;;;3.90;2.37;;;;;;;;;;5130816;27;20207;-91
2022/04/16 14:44:25;;;;;;;3.83;2.10;;;;;;;;;;5126389;28;20207;-92
2022/04/16 14:46:52;;;;;;;3.07;2.50;;;;;;;;;;5122183;28;20236;-93
2022/04/16 14:49:21;;;;;;;2.53;1.90;;;;;;;;;;5121273;28;20203;-92
2022/04/16 14:51:51;;;;;;;2.70;1.90;;;;;;;;;;5126592;28;20196;-92
2022/04/16 14:54:18;;;;;;;2.23;2.03;;;;;;;;;;5118559;28;20208;-92
2022/04/16 14:56:46;;;;;;;2.03;1.63;;;;;;;;;;5111472;28;20223;-91
2022/04/16 14:59:13;;;;;;;1.80;1.70;;;;;;;;;;5121792;28;20198;-92
2022/04/16 15:01:40;;;;;;;1.90;1.77;;;;;;;;;;5117072;28;20299;-92
2022/04/16 15:04:07;;;;;;;1.90;1.73;;;;;;;;;;5119445;28;20204;-92
2022/04/16 15:06:36;;;;;;;2.70;1.93;;;;;;;;;;5121280;28;20216;-92
2022/04/16 15:09:04;;;;;;;2.07;1.87;;;;;;;;;;5122093;27;20200;-92
2022/04/16 15:11:31;;;;;;;2.27;1.70;;;;;;;;;;5130390;27;20259;-93
2022/04/16 15:13:58;;;;;;;4.03;2.23;;;;;;;;;;5133263;27;20249;-93
2022/04/16 15:16:26;;;;;;;1.93;1.83;;;;;;;;;;5141997;27;20185;-93
2022/04/16 15:18:53;;;;;;;2.90;1.93;;;;;;;;;;5135723;27;20232;-93